createdAt,value
2022-09-27T00:01:48.949Z,98188.47
2022-09-27T00:04:16.938Z,98180.59
2022-09-27T00:06:44.806Z,98184.47
2022-09-27T00:09:14.164Z,98192.69
2022-09-27T00:11:43.761Z,98175.94
2022-09-27T00:14:13.883Z,98186.47
2022-09-27T00:16:42.820Z,98182.53
2022-09-27T00:19:13.867Z,98178.75
2022-09-27T00:21:42.687Z,98175.69
2022-09-27T00:24:14.975Z,98179.94
2022-09-27T00:26:43.267Z,98181.72
2022-09-27T00:29:11.574Z,98189.31
2022-09-27T00:31:39.537Z,98176.03
2022-09-27T00:34:08.951Z,98179.03
2022-09-27T00:36:36.747Z,98175.31
2022-09-27T00:39:04.934Z,98170.66
2022-09-27T00:41:36.312Z,98161.25
2022-09-27T00:44:06.454Z,98174.66
2022-09-27T00:46:37.850Z,98173.03
2022-09-27T00:49:09.310Z,98170.81
2022-09-27T00:51:40.592Z,98168.22
2022-09-27T00:54:13.327Z,98168.59
2022-09-27T00:56:44.909Z,98163.16
2022-09-27T00:59:18.212Z,98155.75
2022-09-27T01:01:46.291Z,98160.19
2022-09-27T01:04:18.304Z,98162.56
2022-09-27T01:06:46.198Z,98169.03
2022-09-27T01:09:14.033Z,98159.66
2022-09-27T01:11:47.298Z,98157.06
2022-09-27T01:14:25.953Z,98158.19
2022-09-27T01:17:03.201Z,98155.06
2022-09-27T01:20:25.008Z,98160.97
2022-09-27T01:23:09.382Z,98156.84
2022-09-27T01:25:57.148Z,98155.81
2022-09-27T01:28:42.367Z,98152.91
2022-09-27T01:31:19.454Z,98155.16
2022-09-27T01:33:56.429Z,98157.75
2022-09-27T01:36:34.030Z,98158.84
2022-09-27T01:39:16.756Z,98155.38
2022-09-27T01:42:17.490Z,98152.47
2022-09-27T01:45:01.104Z,98153.59
2022-09-27T01:47:42.313Z,98147.00
2022-09-27T01:50:38.340Z,98141.31
2022-09-27T01:53:10.402Z,98145.22
2022-09-27T01:55:56.819Z,98141.50
2022-09-27T01:58:56.687Z,98143.66
2022-09-27T02:01:29.075Z,98144.16
2022-09-27T02:04:01.812Z,98143.56
2022-09-27T02:06:53.277Z,98140.28
2022-09-27T02:09:29.936Z,98141.19
2022-09-27T02:12:31.139Z,98142.75
2022-09-27T02:15:02.508Z,98134.13
2022-09-27T02:17:41.746Z,98139.19
2022-09-27T02:20:17.092Z,98139.34
2022-09-27T02:22:58.319Z,98139.88
2022-09-27T02:25:31.986Z,98139.22
2022-09-27T02:28:11.763Z,98141.91
2022-09-27T02:30:39.878Z,98139.78
2022-09-27T02:33:26.014Z,98133.91
2022-09-27T02:35:55.317Z,98140.28
2022-09-27T02:38:23.375Z,98147.38
2022-09-27T02:40:52.040Z,98149.66
2022-09-27T02:43:23.910Z,98144.47
2022-09-27T02:46:05.686Z,98142.31
2022-09-27T02:48:44.396Z,98137.41
2022-09-27T02:51:37.874Z,98154.94
2022-09-27T02:54:18.392Z,98149.16
2022-09-27T03:00:23.192Z,98168.97
2022-09-27T03:03:06.461Z,98170.44
2022-09-27T03:05:54.916Z,98168.66
2022-09-27T03:08:24.443Z,98165.16
2022-09-27T03:10:52.746Z,98179.38
2022-09-27T03:13:21.040Z,98177.28
2022-09-27T03:15:49.376Z,98178.69
2022-09-27T03:18:40.837Z,98189.94
2022-09-27T03:27:34.481Z,98209.38
2022-09-27T03:30:02.832Z,98209.50
2022-09-27T03:32:31.487Z,98214.31
2022-09-27T03:35:18.063Z,98217.03
2022-09-27T03:37:47.323Z,98213.91
2022-09-27T03:40:15.528Z,98214.34
2022-09-27T03:42:49.586Z,98222.66
2022-09-27T03:45:18.428Z,98222.78
2022-09-27T03:47:46.876Z,98212.69
2022-09-27T03:50:15.849Z,98218.81
2022-09-27T03:52:44.254Z,98222.66
2022-09-27T03:55:13.408Z,98228.78
2022-09-27T03:57:47.466Z,98234.91
2022-09-27T04:00:18.103Z,98236.41
2022-09-27T04:02:46.462Z,98234.81
2022-09-27T04:05:37.619Z,98249.91
2022-09-27T04:08:13.622Z,98250.06
2022-09-27T04:10:43.420Z,98252.66
2022-09-27T04:13:18.814Z,98260.56
2022-09-27T04:15:54.337Z,98253.22
2022-09-27T04:18:40.842Z,98259.63
2022-09-27T04:21:36.344Z,98263.03
2022-09-27T04:24:06.651Z,98257.19
2022-09-27T04:26:37.242Z,98263.88
2022-09-27T04:29:13.228Z,98262.88
2022-09-27T04:31:49.726Z,98266.72
2022-09-27T04:34:45.288Z,98267.81
2022-09-27T04:37:14.967Z,98274.88
2022-09-27T04:39:49.089Z,98277.75
2022-09-27T04:42:17.784Z,98277.63
2022-09-27T04:44:47.894Z,98278.31
2022-09-27T04:47:17.535Z,98286.47
2022-09-27T04:49:45.642Z,98287.84
2022-09-27T04:52:15.541Z,98285.13
2022-09-27T04:54:44.132Z,98286.06
2022-09-27T04:57:14.514Z,98284.97
2022-09-27T04:59:44.393Z,98286.63
2022-09-27T05:02:15.775Z,98287.44
2022-09-27T05:05:07.023Z,98291.38
2022-09-27T05:07:39.693Z,98295.47
2022-09-27T05:10:13.140Z,98302.44
2022-09-27T05:12:41.937Z,98292.13
2022-09-27T05:15:11.025Z,98298.72
2022-09-27T05:18:13.337Z,98301.31
2022-09-27T05:21:04.647Z,98310.22
2022-09-27T05:23:39.004Z,98303.50
2022-09-27T05:26:08.004Z,98313.34
2022-09-27T05:28:36.387Z,98310.22
2022-09-27T05:31:04.474Z,98313.47
2022-09-27T05:33:34.407Z,98322.63
2022-09-27T05:36:21.093Z,98319.06
2022-09-27T05:38:49.490Z,98318.53
2022-09-27T05:41:18.277Z,98318.56
2022-09-27T05:43:47.236Z,98318.13
2022-09-27T05:46:15.638Z,98331.34
2022-09-27T05:48:46.031Z,98332.47
2022-09-27T05:51:14.427Z,98337.06
2022-09-27T05:53:42.044Z,98338.84
2022-09-27T05:56:19.077Z,98334.78
2022-09-27T05:59:07.373Z,98339.00
2022-09-27T06:01:55.668Z,98342.81
2022-09-27T06:04:56.963Z,98357.00
2022-09-27T06:07:43.316Z,98352.09
2022-09-27T06:10:16.616Z,98359.47
2022-09-27T06:12:44.423Z,98353.59
2022-09-27T06:15:29.841Z,98361.34
2022-09-27T06:17:58.945Z,98361.78
2022-09-27T06:20:28.006Z,98369.38
2022-09-27T06:22:56.212Z,98368.81
2022-09-27T06:25:26.929Z,98362.94
2022-09-27T06:28:14.600Z,98374.50
2022-09-27T06:30:50.753Z,98376.50
2022-09-27T06:33:36.936Z,98381.28
2022-09-27T06:36:07.836Z,98388.53
2022-09-27T06:38:38.459Z,98389.72
2022-09-27T06:41:18.738Z,98389.59
2022-09-27T06:44:13.274Z,98388.84
2022-09-27T06:47:13.267Z,98402.69
2022-09-27T06:50:05.641Z,98395.47
2022-09-27T06:52:37.043Z,98413.34
2022-09-27T06:55:06.724Z,98414.41
2022-09-27T06:57:52.623Z,98425.75
2022-09-27T07:00:27.539Z,98427.25
2022-09-27T07:03:38.991Z,98436.06
2022-09-27T07:06:22.966Z,98444.28
2022-09-27T07:08:58.058Z,98436.31
2022-09-27T07:11:26.164Z,98449.56
2022-09-27T07:13:54.807Z,98444.25
2022-09-27T07:16:24.176Z,98460.66
2022-09-27T07:18:52.931Z,98460.69
2022-09-27T07:21:20.859Z,98458.66
2022-09-27T07:23:49.181Z,98468.72
2022-09-27T07:26:18.633Z,98460.91
2022-09-27T07:28:46.810Z,98460.56
2022-09-27T07:31:18.294Z,98461.19
2022-09-27T07:33:46.852Z,98463.78
2022-09-27T07:36:15.636Z,98462.94
2022-09-27T07:38:45.584Z,98469.06
2022-09-27T07:41:15.497Z,98476.09
2022-09-27T07:43:46.257Z,98480.84
2022-09-27T07:46:15.201Z,98483.41
2022-09-27T07:48:55.486Z,98489.25
2022-09-27T07:51:46.160Z,98485.91
2022-09-27T07:54:34.196Z,98484.38
2022-09-27T07:57:28.602Z,98483.25
2022-09-27T08:00:00.652Z,98487.09
2022-09-27T08:02:28.985Z,98499.16
2022-09-27T08:04:57.248Z,98509.28
2022-09-27T08:07:27.513Z,98507.63
2022-09-27T08:09:57.618Z,98508.00
2022-09-27T08:12:25.387Z,98506.97
2022-09-27T08:14:53.363Z,98501.66
2022-09-27T08:17:23.593Z,98512.28
2022-09-27T08:20:16.455Z,98515.66
2022-09-27T08:22:58.735Z,98519.31
2022-09-27T08:25:38.600Z,98517.41
2022-09-27T08:28:27.397Z,98516.97
2022-09-27T08:31:04.532Z,98519.84
2022-09-27T08:33:40.591Z,98515.38
2022-09-27T08:36:12.957Z,98518.97
2022-09-27T08:38:41.916Z,98512.91
2022-09-27T08:41:17.352Z,98524.22
2022-09-27T08:43:55.174Z,98531.91
2022-09-27T08:46:33.156Z,98531.94
2022-09-27T08:49:08.826Z,98544.66
2022-09-27T08:51:38.357Z,98541.69
2022-09-27T08:54:09.885Z,98549.59
2022-09-27T08:56:38.480Z,98534.41
2022-09-27T08:59:15.050Z,98527.63
2022-09-27T09:01:43.928Z,98529.72
2022-09-27T09:04:21.185Z,98526.91
2022-09-27T09:06:59.198Z,98531.69
2022-09-27T09:09:39.149Z,98528.16
2022-09-27T09:12:46.926Z,98535.88
2022-09-27T09:15:54.498Z,98539.81
2022-09-27T09:18:35.964Z,98542.56
2022-09-27T09:21:16.666Z,98538.69
2022-09-27T09:24:04.443Z,98530.63
2022-09-27T09:26:39.554Z,98535.38
2022-09-27T09:29:50.851Z,98531.72
2022-09-27T09:32:31.187Z,98528.31
2022-09-27T09:35:03.235Z,98526.78
2022-09-27T09:37:40.888Z,98533.59
2022-09-27T09:40:20.776Z,98528.84
2022-09-27T09:42:54.078Z,98521.19
2022-09-27T09:45:27.376Z,98523.34
2022-09-27T09:48:03.885Z,98529.28
2022-09-27T09:50:36.486Z,98514.59
2022-09-27T09:53:14.764Z,98516.34
2022-09-27T09:55:48.221Z,98519.41
2022-09-27T09:58:21.742Z,98512.75
2022-09-27T10:01:00.668Z,98514.97
2022-09-27T10:03:29.253Z,98515.28
2022-09-27T10:05:57.614Z,98507.47
2022-09-27T10:08:27.231Z,98509.09
2022-09-27T10:11:25.482Z,98513.84
2022-09-27T10:14:23.668Z,98515.16
2022-09-27T10:16:59.983Z,98502.38
2022-09-27T10:19:31.022Z,98512.81
2022-09-27T10:22:04.244Z,98514.97
2022-09-27T10:24:55.385Z,98509.75
2022-09-27T10:27:43.555Z,98484.41
2022-09-27T10:30:25.366Z,98506.34
2022-09-27T10:32:57.262Z,98497.81
2022-09-27T10:35:47.089Z,98498.06
2022-09-27T10:38:38.011Z,98496.19
2022-09-27T10:41:29.086Z,98489.38
2022-09-27T10:44:21.522Z,98497.19
2022-09-27T10:46:55.258Z,98494.66
2022-09-27T10:49:41.594Z,98488.53
2022-09-27T10:52:28.955Z,98492.91
2022-09-27T10:54:59.686Z,98489.63
2022-09-27T10:57:35.309Z,98496.75
2022-09-27T11:00:07.521Z,98491.75
2022-09-27T11:02:38.106Z,98491.34
2022-09-27T11:05:16.101Z,98497.50
2022-09-27T11:07:52.993Z,98495.91
2022-09-27T11:10:35.141Z,98492.56
2022-09-27T11:13:11.687Z,98493.75
2022-09-27T11:15:59.731Z,98491.00
2022-09-27T11:18:37.005Z,98502.13
2022-09-27T11:21:17.694Z,98492.88
2022-09-27T11:24:01.165Z,98491.16
2022-09-27T11:26:42.511Z,98493.50
2022-09-27T11:29:24.697Z,98490.13
2022-09-27T11:32:29.618Z,98487.13
2022-09-27T11:35:23.621Z,98474.56
2022-09-27T11:38:00.572Z,98473.34
2022-09-27T11:40:36.479Z,98474.97
2022-09-27T11:43:23.343Z,98470.25
2022-09-27T11:46:16.752Z,98474.91
2022-09-27T11:49:20.543Z,98478.19
2022-09-27T11:52:21.388Z,98471.09
2022-09-27T11:55:10.727Z,98456.28
2022-09-27T11:57:43.663Z,98449.84
2022-09-27T12:00:24.102Z,98458.78
2022-09-27T12:03:24.715Z,98456.25
2022-09-27T12:08:36.066Z,98449.63
2022-09-27T12:11:13.327Z,98442.75
2022-09-27T12:16:18.792Z,98446.88
2022-09-27T12:18:51.769Z,98448.69
2022-09-27T12:21:41.201Z,98438.44
2022-09-27T12:24:20.786Z,98439.72
2022-09-27T12:27:09.696Z,98431.59
2022-09-27T12:29:41.818Z,98442.03
2022-09-27T12:32:14.831Z,98446.84
2022-09-27T12:34:53.099Z,98445.34
2022-09-27T12:37:25.327Z,98438.13
2022-09-27T12:40:00.705Z,98437.53
2022-09-27T12:45:34.196Z,98433.66
2022-09-27T12:48:10.841Z,98438.38
2022-09-27T12:50:45.747Z,98433.75
2022-09-27T12:53:22.874Z,98437.94
2022-09-27T12:56:26.058Z,98439.91
2022-09-27T12:59:18.892Z,98432.69
2022-09-27T13:02:00.890Z,98440.63
2022-09-27T13:04:53.291Z,98444.34
2022-09-27T13:07:41.959Z,98436.84
2022-09-27T13:10:36.469Z,98439.88
2022-09-27T13:13:17.793Z,98450.19
2022-09-27T13:15:47.092Z,98453.31
2022-09-27T13:18:54.285Z,98457.78
2022-09-27T13:21:59.712Z,98451.09
2022-09-27T13:24:50.289Z,98443.66
2022-09-27T13:27:44.310Z,98440.19
2022-09-27T13:30:50.065Z,98450.72
2022-09-27T13:33:49.025Z,98444.31
2022-09-27T13:36:33.228Z,98433.81
2022-09-27T13:39:22.910Z,98436.84
2022-09-27T13:42:33.985Z,98437.66
2022-09-27T13:45:21.346Z,98443.56
2022-09-27T13:47:51.553Z,98434.47
2022-09-27T13:50:40.780Z,98445.50
2022-09-27T13:53:31.536Z,98432.78
2022-09-27T13:55:59.860Z,98438.44
2022-09-27T13:58:46.668Z,98432.97
2022-09-27T14:01:41.163Z,98422.75
2022-09-27T14:04:20.244Z,98427.03
2022-09-27T14:06:51.729Z,98429.47
2022-09-27T14:09:26.284Z,98430.78
2022-09-27T14:12:10.997Z,98429.28
2022-09-27T14:14:43.770Z,98427.53
2022-09-27T14:17:12.763Z,98424.94
2022-09-27T14:19:43.890Z,98435.63
2022-09-27T14:22:14.676Z,98435.09
2022-09-27T14:25:00.362Z,98437.94
2022-09-27T14:27:36.190Z,98432.59
2022-09-27T14:30:28.957Z,98433.06
2022-09-27T14:33:29.666Z,98444.28
2022-09-27T14:36:23.049Z,98443.09
2022-09-27T14:38:54.031Z,98443.72
2022-09-27T14:41:27.560Z,98443.13
2022-09-27T14:43:56.253Z,98443.81
2022-09-27T14:48:56.975Z,98433.91
2022-09-27T14:51:29.463Z,98439.22
2022-09-27T14:54:01.070Z,98442.03
2022-09-27T14:56:32.348Z,98438.41
2022-09-27T14:59:06.497Z,98450.50
2022-09-27T15:01:38.337Z,98446.25
2022-09-27T15:04:10.966Z,98447.91
2022-09-27T15:06:39.914Z,98443.19
2022-09-27T15:09:10.242Z,98446.28
2022-09-27T15:11:41.638Z,98444.47
2022-09-27T15:14:14.796Z,98437.22
2022-09-27T15:16:46.191Z,98445.75
2022-09-27T15:19:17.528Z,98456.34
2022-09-27T15:21:46.808Z,98449.53
2022-09-27T15:24:37.155Z,98459.09
2022-09-27T15:27:07.324Z,98454.44
2022-09-27T15:29:35.126Z,98461.47
2022-09-27T15:32:06.686Z,98460.66
2022-09-27T15:34:37.104Z,98452.03
2022-09-27T15:37:06.450Z,98451.69
2022-09-27T15:39:36.474Z,98448.25
2022-09-27T15:42:09.987Z,98452.78
2022-09-27T15:44:39.246Z,98459.16
2022-09-27T15:47:56.693Z,98460.53
2022-09-27T15:50:39.120Z,98479.69
2022-09-27T15:53:07.168Z,98462.44
2022-09-27T15:55:40.295Z,98463.47
2022-09-27T15:58:15.560Z,98461.72
2022-09-27T16:00:52.906Z,98458.72
2022-09-27T16:03:22.377Z,98456.25
2022-09-27T16:05:50.776Z,98466.22
2022-09-27T16:08:18.542Z,98474.72
2022-09-27T16:10:49.745Z,98480.72
2022-09-27T16:13:17.535Z,98479.78
2022-09-27T16:15:46.002Z,98477.53
2022-09-27T16:18:14.061Z,98477.59
2022-09-27T16:20:43.877Z,98487.72
2022-09-27T16:23:11.757Z,98482.94
2022-09-27T16:25:40.465Z,98488.69
2022-09-27T16:28:09.813Z,98492.84
2022-09-27T16:30:37.554Z,98487.22
2022-09-27T16:33:05.577Z,98486.59
2022-09-27T16:35:33.243Z,98491.38
2022-09-27T16:38:03.173Z,98495.19
2022-09-27T16:40:32.011Z,98494.22
2022-09-27T16:42:59.890Z,98498.34
2022-09-27T16:45:34.262Z,98501.34
2022-09-27T16:48:03.451Z,98494.34
2022-09-27T16:50:49.225Z,98497.69
2022-09-27T16:53:19.166Z,98500.53
2022-09-27T16:55:48.051Z,98489.97
2022-09-27T16:58:16.196Z,98494.97
2022-09-27T17:00:45.498Z,98495.03
2022-09-27T17:03:13.317Z,98495.03
2022-09-27T17:05:40.998Z,98496.66
2022-09-27T17:08:09.024Z,98499.41
2022-09-27T17:10:38.954Z,98493.72
2022-09-27T17:13:07.263Z,98498.31
2022-09-27T17:15:35.052Z,98492.44
2022-09-27T17:18:03.120Z,98493.25
2022-09-27T17:20:30.967Z,98498.53
2022-09-27T17:22:58.924Z,98493.59
2022-09-27T17:25:27.945Z,98494.72
2022-09-27T17:27:57.889Z,98499.38
2022-09-27T17:30:26.355Z,98504.19
2022-09-27T17:32:53.995Z,98501.31
2022-09-27T17:35:21.754Z,98505.66
2022-09-27T17:37:50.768Z,98508.25
2022-09-27T17:40:19.078Z,98505.63
2022-09-27T17:42:46.947Z,98504.66
2022-09-27T17:45:16.173Z,98510.97
2022-09-27T17:48:01.354Z,98504.91
2022-09-27T17:50:29.269Z,98506.38
2022-09-27T17:52:59.133Z,98514.44
2022-09-27T17:55:27.996Z,98516.81
2022-09-27T17:57:56.654Z,98518.63
2022-09-27T18:00:31.331Z,98513.31
2022-09-27T18:03:00.529Z,98516.03
2022-09-27T18:05:29.587Z,98516.50
2022-09-27T18:07:57.595Z,98522.38
2022-09-27T18:10:26.672Z,98514.75
2022-09-27T18:12:55.711Z,98520.09
2022-09-27T18:15:23.719Z,98519.66
2022-09-27T18:17:57.895Z,98515.44
2022-09-27T18:20:25.890Z,98522.66
2022-09-27T18:22:54.080Z,98522.13
2022-09-27T18:25:25.036Z,98522.38
2022-09-27T18:27:53.276Z,98527.53
2022-09-27T18:30:21.062Z,98534.25
2022-09-27T18:32:50.548Z,98529.06
2022-09-27T18:35:20.602Z,98538.50
2022-09-27T18:37:48.386Z,98538.88
2022-09-27T18:40:27.900Z,98530.81
2022-09-27T18:43:04.765Z,98542.22
2022-09-27T18:45:37.541Z,98542.06
2022-09-27T18:48:06.174Z,98543.06
2022-09-27T18:50:38.287Z,98547.00
2022-09-27T18:53:06.061Z,98541.00
2022-09-27T18:55:37.977Z,98542.75
2022-09-27T18:58:06.363Z,98553.41
2022-09-27T19:00:34.328Z,98548.91
2022-09-27T19:03:02.357Z,98538.78
2022-09-27T19:05:30.114Z,98542.06
2022-09-27T19:07:59.820Z,98551.47
2022-09-27T19:10:27.621Z,98548.88
2022-09-27T19:12:57.218Z,98553.47
2022-09-27T19:15:25.728Z,98551.44
2022-09-27T19:17:53.855Z,98559.47
2022-09-27T19:20:21.635Z,98556.88
2022-09-27T19:22:50.422Z,98558.28
2022-09-27T19:25:19.887Z,98559.47
2022-09-27T19:27:48.388Z,98548.97
2022-09-27T19:30:16.352Z,98552.28
2022-09-27T19:32:48.142Z,98556.19
2022-09-27T19:35:16.199Z,98558.50
2022-09-27T19:37:43.976Z,98552.53
2022-09-27T19:40:12.305Z,98545.69
2022-09-27T19:42:41.618Z,98554.56
2022-09-27T19:45:12.487Z,98550.44
2022-09-27T19:47:40.408Z,98552.31
2022-09-27T19:50:09.438Z,98552.09
2022-09-27T19:52:37.302Z,98541.84
2022-09-27T19:55:09.167Z,98544.13
2022-09-27T19:57:37.134Z,98539.09
2022-09-27T20:00:08.101Z,98534.50
2022-09-27T20:02:36.187Z,98541.19
2022-09-27T20:05:06.626Z,98535.31
2022-09-27T20:07:34.988Z,98532.72
2022-09-27T20:10:03.091Z,98532.34
2022-09-27T20:12:33.868Z,98525.34
2022-09-27T20:15:01.634Z,98526.28
2022-09-27T20:17:33.834Z,98525.44
2022-09-27T20:20:02.370Z,98529.63
2022-09-27T20:22:30.366Z,98527.59
2022-09-27T20:24:58.475Z,98521.75
2022-09-27T20:27:26.215Z,98520.78
2022-09-27T20:29:53.964Z,98516.84
2022-09-27T20:32:28.882Z,98517.13
2022-09-27T20:34:58.789Z,98518.66
2022-09-27T20:37:26.578Z,98517.94
2022-09-27T20:39:54.564Z,98514.94
2022-09-27T20:42:23.389Z,98507.66
2022-09-27T20:44:54.544Z,98505.44
2022-09-27T20:47:23.673Z,98498.44
2022-09-27T20:49:53.423Z,98495.50
2022-09-27T20:52:23.330Z,98486.44
2022-09-27T20:54:52.427Z,98486.38
2022-09-27T20:57:46.385Z,98481.44
2022-09-27T21:00:15.863Z,98475.50
2022-09-27T21:02:44.464Z,98467.34
2022-09-27T21:05:13.585Z,98469.31
2022-09-27T21:07:43.897Z,98462.13
2022-09-27T21:10:12.977Z,98459.97
2022-09-27T21:12:44.757Z,98464.53
2022-09-27T21:15:15.436Z,98468.16
2022-09-27T21:17:43.294Z,98463.00
2022-09-27T21:20:11.276Z,98469.56
2022-09-27T21:22:39.847Z,98460.78
2022-09-27T21:25:10.471Z,98459.53
2022-09-27T21:27:40.599Z,98459.16
2022-09-27T21:30:09.858Z,98462.63
2022-09-27T21:32:38.144Z,98467.38
2022-09-27T21:35:07.470Z,98463.38
2022-09-27T21:37:35.643Z,98452.72
2022-09-27T21:40:05.243Z,98439.16
2022-09-27T21:42:34.346Z,98445.78
2022-09-27T21:45:02.131Z,98448.81
2022-09-27T21:47:29.984Z,98441.63
2022-09-27T21:49:58.162Z,98441.88
2022-09-27T21:52:27.933Z,98449.63
2022-09-27T21:54:55.736Z,98441.09
2022-09-27T21:57:23.706Z,98440.34
2022-09-27T21:59:52.845Z,98433.34
2022-09-27T22:02:21.194Z,98432.88
2022-09-27T22:04:50.444Z,98429.41
2022-09-27T22:07:18.341Z,98428.91
2022-09-27T22:09:46.259Z,98429.22
2022-09-27T22:12:14.401Z,98425.03
2022-09-27T22:14:42.793Z,98425.16
2022-09-27T22:17:15.819Z,98413.84
2022-09-27T22:19:43.881Z,98405.66
2022-09-27T22:22:12.062Z,98414.25
2022-09-27T22:24:40.263Z,98405.28
2022-09-27T22:27:08.068Z,98406.09
2022-09-27T22:29:36.089Z,98408.19
2022-09-27T22:32:03.954Z,98401.03
2022-09-27T22:34:32.931Z,98385.91
2022-09-27T22:37:02.357Z,98381.66
2022-09-27T22:39:30.140Z,98386.03
2022-09-27T22:41:58.268Z,98384.66
2022-09-27T22:44:26.244Z,98366.22
2022-09-27T22:46:53.989Z,98365.56
2022-09-27T22:49:23.090Z,98349.63
2022-09-27T22:51:52.920Z,98339.94
2022-09-27T22:54:23.775Z,98335.16
2022-09-27T22:56:57.301Z,98337.06
2022-09-27T22:59:25.962Z,98330.78
2022-09-27T23:01:53.720Z,98329.72
2022-09-27T23:04:22.438Z,98325.88
2022-09-27T23:06:52.185Z,98322.06
2022-09-27T23:09:20.045Z,98326.16
2022-09-27T23:11:47.927Z,98319.31
2022-09-27T23:14:15.966Z,98314.56
2022-09-27T23:16:43.809Z,98306.81
2022-09-27T23:19:12.210Z,98301.75
2022-09-27T23:21:40.031Z,98306.81
2022-09-27T23:24:11.848Z,98300.53
2022-09-27T23:26:39.699Z,98284.16
2022-09-27T23:29:08.553Z,98295.88
2022-09-27T23:31:36.421Z,98292.91
2022-09-27T23:34:06.028Z,98300.94
2022-09-27T23:36:35.375Z,98288.66
2022-09-27T23:39:03.263Z,98287.56
2022-09-27T23:41:32.634Z,98284.44
2022-09-27T23:44:00.501Z,98282.00
2022-09-27T23:46:28.833Z,98280.78
2022-09-27T23:48:58.981Z,98269.16
2022-09-27T23:51:26.883Z,98260.19
2022-09-27T23:53:54.802Z,98257.47
2022-09-27T23:56:22.508Z,98260.44
2022-09-27T23:58:52.142Z,98254.88
